Time;durP1;ratioP1;P1;durP2;ratioP2;P2;SDS_P1;SDS_P2;PMS_P1;PMS_P2;Temp;Humidity;BMP_temperature;BMP_pressure;BME280_temperature;BME280_humidity;BME280_pressure;Samples;Min_cycle;Max_cycle;Signal;HPM_P1;HPM_P2
2022/02/08 00:00:12;;;;;;;2.53;0.60;;;;;;;;;;4839927;29;20065;-66
2022/02/08 00:02:47;;;;;;;2.25;0.45;;;;;;;;;;4840241;29;20491;-66
2022/02/08 00:05:20;;;;;;;4.93;1.00;;;;;;;;;;4840145;29;20061;-66
2022/02/08 00:07:53;;;;;;;1.90;0.65;;;;;;;;;;4844790;29;20065;-67
2022/02/08 00:10:27;;;;;;;8.15;0.68;;;;;;;;;;4827606;29;20075;-66
2022/02/08 00:12:58;;;;;;;2.72;0.60;;;;;;;;;;4858383;29;20106;-66
2022/02/08 00:15:28;;;;;;;2.17;0.63;;;;;;;;;;4858355;29;20057;-66
2022/02/08 00:17:59;;;;;;;3.00;0.77;;;;;;;;;;4858478;29;20060;-66
2022/02/08 00:20:29;;;;;;;1.75;0.60;;;;;;;;;;4827581;29;20050;-66
2022/02/08 00:22:59;;;;;;;2.17;0.57;;;;;;;;;;4858330;29;20418;-66
2022/02/08 00:25:30;;;;;;;3.05;0.52;;;;;;;;;;4847553;29;20065;-66
2022/02/08 00:28:00;;;;;;;1.25;0.80;;;;;;;;;;4952451;29;20055;-66
2022/02/08 00:30:30;;;;;;;4.57;0.50;;;;;;;;;;4936375;29;20068;-66
2022/02/08 00:33:00;;;;;;;2.65;0.77;;;;;;;;;;4952238;29;20062;-66
2022/02/08 00:35:31;;;;;;;3.25;0.68;;;;;;;;;;4952210;29;20051;-66
2022/02/08 00:38:01;;;;;;;4.68;0.70;;;;;;;;;;4952312;29;20051;-66
2022/02/08 00:40:33;;;;;;;4.43;0.80;;;;;;;;;;4952061;29;20066;-66
2022/02/08 00:43:05;;;;;;;3.22;0.80;;;;;;;;;;4952132;29;20063;-66
2022/02/08 00:48:38;;;;;;;2.92;1.00;;;;;;;;;;4952248;29;20059;-66
2022/02/08 00:51:10;;;;;;;5.90;1.05;;;;;;;;;;4952172;29;20062;-66
2022/02/08 00:53:40;;;;;;;;;;;;;;;;;;4901959;29;20066;-66
2022/02/08 00:56:10;;;;;;;7.15;0.85;;;;;;;;;;4948451;29;19922;-66
2022/02/08 00:58:41;;;;;;;5.63;1.10;;;;;;;;;;4916541;29;20059;-66
2022/02/08 01:01:12;;;;;;;3.17;0.80;;;;;;;;;;4932694;29;20070;-66
2022/02/08 01:03:43;;;;;;;1.95;0.82;;;;;;;;;;4930987;29;20078;-66
2022/02/08 01:06:15;;;;;;;5.53;0.90;;;;;;;;;;4950856;28;20059;-66
2022/02/08 01:08:46;;;;;;;3.80;0.98;;;;;;;;;;4954508;28;20059;-66
2022/02/08 01:11:17;;;;;;;2.78;0.80;;;;;;;;;;4951297;29;20055;-66
2022/02/08 01:13:48;;;;;;;7.53;0.90;;;;;;;;;;4935317;29;20062;-66
2022/02/08 01:16:18;;;;;;;5.63;0.90;;;;;;;;;;4951644;29;20067;-66
2022/02/08 01:18:53;;;;;;;4.35;1.00;;;;;;;;;;4951579;29;20511;-66
2022/02/08 01:21:24;;;;;;;7.25;1.10;;;;;;;;;;4919324;29;20124;-66
2022/02/08 01:23:54;;;;;;;5.45;0.90;;;;;;;;;;4951249;29;20054;-66
2022/02/08 01:26:25;;;;;;;5.75;1.00;;;;;;;;;;4951168;29;20047;-66
2022/02/08 01:29:02;;;;;;;3.97;0.90;;;;;;;;;;4951174;29;20059;-66
2022/02/08 01:31:38;;;;;;;2.80;0.90;;;;;;;;;;4962864;28;20055;-66
2022/02/08 01:34:28;;;;;;;5.53;1.20;;;;;;;;;;4970397;28;20069;-66
2022/02/08 01:39:58;;;;;;;2.35;0.85;;;;;;;;;;4913152;29;20059;-66
2022/02/08 01:42:36;;;;;;;3.97;1.17;;;;;;;;;;4884654;29;20052;-66
2022/02/08 01:47:48;;;;;;;3.70;0.98;;;;;;;;;;4879479;29;20064;-66
2022/02/08 01:50:19;;;;;;;3.88;1.45;;;;;;;;;;4878267;29;20044;-66
2022/02/08 01:52:50;;;;;;;4.88;0.90;;;;;;;;;;4894021;29;20052;-66
2022/02/08 01:55:26;;;;;;;3.20;1.08;;;;;;;;;;4909611;29;20064;-66
2022/02/08 01:58:18;;;;;;;4.10;1.00;;;;;;;;;;4893608;29;20440;-66
2022/02/08 02:00:48;;;;;;;2.70;1.13;;;;;;;;;;4893641;29;20057;-66
2022/02/08 02:03:19;;;;;;;4.38;1.15;;;;;;;;;;4862713;29;20060;-66
2022/02/08 02:05:52;;;;;;;2.90;0.73;;;;;;;;;;4893931;29;20460;-66
2022/02/08 02:08:25;;;;;;;7.60;0.98;;;;;;;;;;4893490;29;20064;-66
2022/02/08 02:10:57;;;;;;;6.00;0.90;;;;;;;;;;4911975;29;20052;-66
2022/02/08 02:13:46;;;;;;;3.60;1.17;;;;;;;;;;4896651;29;20060;-66
2022/02/08 02:16:26;;;;;;;4.70;1.70;;;;;;;;;;4950008;28;20051;-66
2022/02/08 02:18:56;;;;;;;9.05;1.10;;;;;;;;;;4950301;29;20063;-66
2022/02/08 02:21:32;;;;;;;3.70;1.05;;;;;;;;;;4919415;29;20070;-66
2022/02/08 02:24:02;;;;;;;8.95;1.10;;;;;;;;;;4950159;29;20062;-66
2022/02/08 02:26:32;;;;;;;9.48;1.13;;;;;;;;;;4950328;29;20539;-66
2022/02/08 02:29:03;;;;;;;2.78;1.00;;;;;;;;;;4949827;29;20051;-67
2022/02/08 02:31:34;;;;;;;2.65;0.80;;;;;;;;;;4969309;28;20431;-66
2022/02/08 02:34:04;;;;;;;2.63;0.80;;;;;;;;;;4969363;28;20734;-66
2022/02/08 02:36:35;;;;;;;6.78;1.23;;;;;;;;;;4927343;29;20054;-66
2022/02/08 02:39:05;;;;;;;2.90;0.70;;;;;;;;;;4950068;29;20071;-66
2022/02/08 02:41:41;;;;;;;3.90;0.95;;;;;;;;;;4902414;29;20051;-66
2022/02/08 02:44:20;;;;;;;4.80;1.20;;;;;;;;;;4934153;29;20058;-66
2022/02/08 02:46:52;;;;;;;6.93;1.33;;;;;;;;;;4933563;29;20052;-66
2022/02/08 02:49:27;;;;;;;;;;;;;;;;;;4915831;29;20052;-66
2022/02/08 02:52:06;;;;;;;4.25;0.65;;;;;;;;;;4950001;29;19922;-66
2022/02/08 02:54:42;;;;;;;5.13;1.10;;;;;;;;;;4861763;29;20419;-66
2022/02/08 02:57:17;;;;;;;7.40;1.73;;;;;;;;;;4874122;29;20049;-66
2022/02/08 02:59:50;;;;;;;5.13;1.55;;;;;;;;;;4874322;29;20087;-66
2022/02/08 03:19:05;;;;;;;3.70;1.10;;;;;;;;;;4855937;29;20073;-66
2022/02/08 03:21:36;;;;;;;2.85;1.33;;;;;;;;;;4877180;29;20053;-66
2022/02/08 03:24:08;;;;;;;8.88;1.40;;;;;;;;;;4873999;29;20053;-66
2022/02/08 03:26:38;;;;;;;5.45;1.13;;;;;;;;;;4837113;29;20153;-66
2022/02/08 03:29:09;;;;;;;7.82;1.13;;;;;;;;;;4834409;29;20074;-66
2022/02/08 03:31:39;;;;;;;5.35;1.52;;;;;;;;;;4818747;29;20063;-66
2022/02/08 03:34:10;;;;;;;9.70;1.05;;;;;;;;;;4821889;29;20057;-66
2022/02/08 03:36:45;;;;;;;7.38;1.10;;;;;;;;;;4839987;29;20053;-66
2022/02/08 03:39:19;;;;;;;4.05;1.20;;;;;;;;;;4858590;29;20053;-66
2022/02/08 03:42:07;;;;;;;6.15;1.55;;;;;;;;;;4870032;29;20064;-66
2022/02/08 03:44:44;;;;;;;12.93;1.33;;;;;;;;;;4896080;29;20055;-66
2022/02/08 03:47:17;;;;;;;4.35;1.23;;;;;;;;;;4861851;29;20057;-66
2022/02/08 03:49:50;;;;;;;4.07;1.20;;;;;;;;;;4895660;29;20049;-66
2022/02/08 03:52:23;;;;;;;5.38;1.40;;;;;;;;;;4895655;29;20064;-66
2022/02/08 03:54:56;;;;;;;8.75;2.10;;;;;;;;;;4859938;29;20057;-66
2022/02/08 03:57:28;;;;;;;3.97;1.50;;;;;;;;;;4895397;29;20436;-66
2022/02/08 04:00:04;;;;;;;4.22;1.30;;;;;;;;;;4865868;29;20049;-66
2022/02/08 04:02:49;;;;;;;3.58;1.30;;;;;;;;;;4850490;29;20623;-66
2022/02/08 04:07:53;;;;;;;4.85;1.13;;;;;;;;;;4896187;29;21316;-66
2022/02/08 04:10:26;;;;;;;3.95;1.25;;;;;;;;;;4896113;29;20057;-66
2022/02/08 04:15:43;;;;;;;6.03;1.45;;;;;;;;;;4877191;29;19930;-66
2022/02/08 04:32:22;;;;;;;4.38;1.50;;;;;;;;;;4939024;29;20055;-67
2022/02/08 04:40:41;;;;;;;4.85;0.90;;;;;;;;;;5013524;28;20049;-66
2022/02/08 04:43:31;;;;;;;4.22;1.80;;;;;;;;;;5013570;28;20061;-66
2022/02/08 04:46:11;;;;;;;5.05;1.30;;;;;;;;;;4985924;28;20125;-66
2022/02/08 04:48:55;;;;;;;9.13;1.48;;;;;;;;;;4996330;28;20049;-66
2022/02/08 04:54:07;;;;;;;3.45;1.15;;;;;;;;;;5013044;28;20077;-66
2022/02/08 05:02:15;;;;;;;6.00;1.35;;;;;;;;;;5013239;28;20394;-66
2022/02/08 05:41:40;;;;;;;9.25;1.42;;;;;;;;;;4970850;28;20051;-66
2022/02/08 05:49:12;;;;;;;4.05;1.13;;;;;;;;;;4971118;28;20705;-67
2022/02/08 05:54:22;;;;;;;6.32;1.20;;;;;;;;;;4970741;28;20414;-67
2022/02/08 05:56:53;;;;;;;4.18;1.27;;;;;;;;;;4970865;28;20066;-67
2022/02/08 05:59:24;;;;;;;9.00;1.60;;;;;;;;;;4970740;28;20059;-67
2022/02/08 06:01:54;;;;;;;5.88;1.15;;;;;;;;;;4937997;28;20086;-67
2022/02/08 06:05:03;;;;;;;5.03;1.38;;;;;;;;;;4913225;29;20040;-67
2022/02/08 06:07:34;;;;;;;2.42;1.08;;;;;;;;;;4912643;29;20063;-67
2022/02/08 06:10:04;;;;;;;5.40;1.15;;;;;;;;;;4908638;29;20056;-67
2022/02/08 06:12:51;;;;;;;6.20;1.70;;;;;;;;;;4893822;29;20064;-67
2022/02/08 06:15:28;;;;;;;5.00;1.40;;;;;;;;;;4859517;29;20072;-67
2022/02/08 06:17:59;;;;;;;4.95;1.30;;;;;;;;;;4860101;29;20072;-67
2022/02/08 06:20:30;;;;;;;5.05;1.55;;;;;;;;;;4874739;29;20056;-67
2022/02/08 06:23:02;;;;;;;4.63;1.13;;;;;;;;;;4874966;29;20061;-67
2022/02/08 06:25:33;;;;;;;2.53;1.20;;;;;;;;;;4890007;29;20044;-67
2022/02/08 06:28:04;;;;;;;2.30;1.23;;;;;;;;;;4859282;29;20048;-67
2022/02/08 06:30:34;;;;;;;6.53;1.40;;;;;;;;;;4855514;29;20082;-67
2022/02/08 06:33:06;;;;;;;8.85;1.65;;;;;;;;;;4856002;29;20064;-67
2022/02/08 06:35:36;;;;;;;4.97;1.40;;;;;;;;;;4860780;29;20555;-67
2022/02/08 06:38:10;;;;;;;3.65;1.23;;;;;;;;;;4874517;29;20053;-67
2022/02/08 06:40:42;;;;;;;4.35;1.35;;;;;;;;;;4874509;29;20176;-67
2022/02/08 06:43:13;;;;;;;2.78;1.25;;;;;;;;;;4874744;29;20057;-67
2022/02/08 06:45:43;;;;;;;6.10;1.10;;;;;;;;;;4829824;29;20072;-67
2022/02/08 06:48:13;;;;;;;5.22;1.15;;;;;;;;;;4887867;29;20067;-67
2022/02/08 06:50:44;;;;;;;4.00;1.42;;;;;;;;;;4892981;29;20059;-67
2022/02/08 06:53:17;;;;;;;6.30;1.10;;;;;;;;;;4904068;29;20052;-67
2022/02/08 06:55:48;;;;;;;2.80;1.15;;;;;;;;;;4896336;29;20060;-67
2022/02/08 06:58:19;;;;;;;3.38;1.10;;;;;;;;;;4912197;29;20519;-67
2022/02/08 07:00:51;;;;;;;11.40;2.28;;;;;;;;;;4912037;29;20072;-67
2022/02/08 07:03:21;;;;;;;3.10;1.20;;;;;;;;;;4913008;29;20476;-67
2022/02/08 07:05:52;;;;;;;4.55;1.17;;;;;;;;;;4896543;29;20063;-67
2022/02/08 07:08:24;;;;;;;5.00;1.13;;;;;;;;;;4918936;29;20063;-67
2022/02/08 07:10:54;;;;;;;3.28;1.13;;;;;;;;;;4953504;29;20411;-67
2022/02/08 07:13:25;;;;;;;9.02;1.70;;;;;;;;;;4895861;29;20052;-67
2022/02/08 07:15:55;;;;;;;5.38;1.20;;;;;;;;;;4945443;29;20055;-67
2022/02/08 07:18:26;;;;;;;2.85;1.15;;;;;;;;;;4953831;29;20172;-67
2022/02/08 07:20:56;;;;;;;6.50;1.27;;;;;;;;;;4906231;29;20055;-67
2022/02/08 07:23:26;;;;;;;3.67;1.10;;;;;;;;;;4953736;29;20066;-67
2022/02/08 07:25:56;;;;;;;3.35;1.13;;;;;;;;;;4953421;29;20047;-67
2022/02/08 07:28:28;;;;;;;7.18;1.20;;;;;;;;;;4906188;29;20051;-67
2022/02/08 07:31:08;;;;;;;3.25;0.90;;;;;;;;;;4953276;29;20052;-67
2022/02/08 07:33:42;;;;;;;6.10;1.30;;;;;;;;;;4926178;29;20075;-66
2022/02/08 07:36:24;;;;;;;5.95;1.25;;;;;;;;;;4934084;29;20472;-66
2022/02/08 07:38:55;;;;;;;4.50;1.35;;;;;;;;;;4934439;29;20063;-67
2022/02/08 07:41:39;;;;;;;3.30;1.08;;;;;;;;;;4914720;29;20063;-67
2022/02/08 07:44:12;;;;;;;3.15;1.13;;;;;;;;;;4902651;29;20205;-66
2022/02/08 07:46:47;;;;;;;2.92;1.13;;;;;;;;;;4934012;29;20062;-66
2022/02/08 07:49:18;;;;;;;6.88;1.20;;;;;;;;;;4933706;29;20439;-67
2022/02/08 07:51:48;;;;;;;4.95;1.27;;;;;;;;;;4917711;29;20059;-67
2022/02/08 07:54:18;;;;;;;3.85;1.17;;;;;;;;;;4933814;29;20078;-66
2022/02/08 07:56:50;;;;;;;;;;;;;;;;;;4919676;29;20056;-67
2022/02/08 07:59:21;;;;;;;6.28;1.05;;;;;;;;;;4901610;29;19945;-66
2022/02/08 08:01:51;;;;;;;5.20;0.98;;;;;;;;;;4933689;29;20590;-67
2022/02/08 08:04:21;;;;;;;4.50;1.10;;;;;;;;;;4898755;29;20052;-67
2022/02/08 08:06:56;;;;;;;6.53;1.02;;;;;;;;;;4914657;29;20445;-67
2022/02/08 08:09:27;;;;;;;2.88;0.93;;;;;;;;;;4898837;29;20542;-66
2022/02/08 08:11:57;;;;;;;3.17;1.20;;;;;;;;;;4895284;29;20433;-67
2022/02/08 08:14:28;;;;;;;3.70;0.98;;;;;;;;;;4895287;29;20549;-67
2022/02/08 08:19:50;;;;;;;7.38;1.30;;;;;;;;;;4850175;29;20060;-67
2022/02/08 08:22:20;;;;;;;6.00;1.10;;;;;;;;;;4835441;29;20419;-66
2022/02/08 08:24:51;;;;;;;2.67;1.05;;;;;;;;;;4791041;29;20058;-66
2022/02/08 08:27:21;;;;;;;4.03;1.10;;;;;;;;;;4821431;29;20435;-66
2022/02/08 08:29:52;;;;;;;5.78;1.08;;;;;;;;;;4791068;29;20070;-66
2022/02/08 08:32:23;;;;;;;3.88;0.93;;;;;;;;;;4822454;29;20051;-67
2022/02/08 08:34:53;;;;;;;3.15;1.00;;;;;;;;;;4839667;29;20062;-66
2022/02/08 08:37:23;;;;;;;4.63;1.10;;;;;;;;;;4864088;29;20068;-66
2022/02/08 08:40:01;;;;;;;3.55;1.05;;;;;;;;;;4861504;29;20064;-67
2022/02/08 08:42:45;;;;;;;9.68;1.20;;;;;;;;;;4872293;29;20568;-67
2022/02/08 08:51:25;;;;;;;2.85;1.02;;;;;;;;;;4895172;29;20060;-67
2022/02/08 08:53:55;;;;;;;2.28;1.20;;;;;;;;;;4864027;29;20056;-67
2022/02/08 08:56:26;;;;;;;2.20;1.10;;;;;;;;;;4908499;29;20051;-67
2022/02/08 08:58:57;;;;;;;4.85;1.10;;;;;;;;;;4956848;28;20051;-67
2022/02/08 09:01:27;;;;;;;4.82;1.10;;;;;;;;;;4995478;28;20060;-67
2022/02/08 09:03:57;;;;;;;7.20;1.30;;;;;;;;;;4961913;28;20077;-67
2022/02/08 09:06:28;;;;;;;3.63;1.38;;;;;;;;;;4979124;28;20421;-67
2022/02/08 09:08:58;;;;;;;7.45;1.70;;;;;;;;;;5012697;28;20057;-67
2022/02/08 09:24:57;;;;;;;4.32;1.40;;;;;;;;;;4970875;28;20380;-67
2022/02/08 09:30:16;;;;;;;6.25;1.50;;;;;;;;;;4970622;28;20051;-67
2022/02/08 09:32:53;;;;;;;3.72;1.30;;;;;;;;;;4923306;28;20561;-67
2022/02/08 09:35:24;;;;;;;6.00;1.77;;;;;;;;;;4970459;28;20066;-67
2022/02/08 09:37:54;;;;;;;3.78;1.60;;;;;;;;;;4954442;28;20060;-67
2022/02/08 09:40:25;;;;;;;5.68;1.60;;;;;;;;;;4923288;28;20521;-67
2022/02/08 09:42:57;;;;;;;3.67;1.35;;;;;;;;;;4970407;28;20059;-67
2022/02/08 09:45:30;;;;;;;1.73;1.10;;;;;;;;;;4970314;28;20521;-67
2022/02/08 09:48:28;;;;;;;10.18;2.13;;;;;;;;;;4972075;28;20083;-67
2022/02/08 09:50:52;;;;;;;4.90;1.55;;;;;;;;;;4961039;28;20085;-66
2022/02/08 09:53:31;;;;;;;6.82;1.50;;;;;;;;;;5011646;28;20038;-67
2022/02/08 09:56:04;;;;;;;4.28;1.75;;;;;;;;;;5011541;28;20509;-67
2022/02/08 09:58:35;;;;;;;5.63;3.10;;;;;;;;;;5011625;28;20038;-67
2022/02/08 10:01:18;;;;;;;11.10;2.40;;;;;;;;;;4960916;28;20072;-67
2022/02/08 10:04:01;;;;;;;4.53;1.55;;;;;;;;;;5011651;28;20061;-67
2022/02/08 10:06:32;;;;;;;5.93;1.75;;;;;;;;;;4989255;28;20050;-67
2022/02/08 10:09:06;;;;;;;7.38;1.90;;;;;;;;;;4989370;28;20089;-66
2022/02/08 10:11:50;;;;;;;7.15;1.83;;;;;;;;;;4989276;28;20061;-67
2022/02/08 10:14:25;;;;;;;9.15;2.25;;;;;;;;;;4956924;28;20083;-66
2022/02/08 10:22:34;;;;;;;4.60;1.70;;;;;;;;;;4958163;28;20062;-67
2022/02/08 10:25:07;;;;;;;5.63;1.58;;;;;;;;;;4989129;28;20081;-67
2022/02/08 10:27:48;;;;;;;7.47;1.50;;;;;;;;;;4956860;28;20054;-67
2022/02/08 10:38:54;;;;;;;8.52;2.17;;;;;;;;;;4937288;29;20064;-66
2022/02/08 10:41:25;;;;;;;3.38;1.40;;;;;;;;;;4905874;29;20133;-66
2022/02/08 10:44:10;;;;;;;8.18;1.85;;;;;;;;;;4945203;29;20055;-66
2022/02/08 10:46:41;;;;;;;4.53;1.80;;;;;;;;;;4956667;29;20067;-66
2022/02/08 10:49:13;;;;;;;3.10;1.30;;;;;;;;;;4924884;28;20514;-66
2022/02/08 10:54:28;;;;;;;7.53;1.90;;;;;;;;;;4924652;29;20533;-66
2022/02/08 10:57:07;;;;;;;6.13;1.48;;;;;;;;;;4937509;29;20051;-66
2022/02/08 10:59:42;;;;;;;11.25;1.63;;;;;;;;;;4917918;29;20151;-66
2022/02/08 11:02:24;;;;;;;4.53;1.85;;;;;;;;;;4918356;29;20071;-66
2022/02/08 11:05:10;;;;;;;8.00;1.80;;;;;;;;;;4918239;29;20071;-67
2022/02/08 11:07:57;;;;;;;6.25;1.50;;;;;;;;;;4918406;29;20067;-67
2022/02/08 11:16:10;;;;;;;12.70;5.05;;;;;;;;;;4931219;29;20523;-67
2022/02/08 11:19:19;;;;;;;5.18;2.05;;;;;;;;;;4937208;29;20059;-67
2022/02/08 11:22:07;;;;;;;7.80;1.50;;;;;;;;;;4901927;29;20059;-67
2022/02/08 11:24:51;;;;;;;8.75;2.08;;;;;;;;;;4902250;29;20051;-66
2022/02/08 11:27:22;;;;;;;5.30;2.38;;;;;;;;;;4918417;29;20154;-67
2022/02/08 11:30:13;;;;;;;7.80;2.20;;;;;;;;;;4917932;29;20051;-67
2022/02/08 11:52:45;;;;;;;3.60;1.48;;;;;;;;;;4880310;29;20052;-68
2022/02/08 11:55:46;;;;;;;5.45;2.35;;;;;;;;;;4896066;29;20476;-69
2022/02/08 11:58:39;;;;;;;4.97;1.40;;;;;;;;;;4896211;29;20159;-69
2022/02/08 12:01:27;;;;;;;7.93;1.48;;;;;;;;;;4914853;29;20060;-68
2022/02/08 12:35:24;;;;;;;4.68;1.55;;;;;;;;;;4933407;29;20785;-69
2022/02/08 12:55:30;;;;;;;6.07;2.60;;;;;;;;;;5010393;28;20057;-67
2022/02/08 13:00:56;;;;;;;8.60;2.78;;;;;;;;;;5009307;28;20049;-67
2022/02/08 14:03:32;;;;;;;2.33;0.88;;;;;;;;;;4970302;28;20058;-69
2022/02/08 14:06:12;;;;;;;2.72;0.90;;;;;;;;;;4937877;28;20059;-67
2022/02/08 14:14:27;;;;;;;1.60;0.70;;;;;;;;;;4992642;28;20062;-68
2022/02/08 14:19:49;;;;;;;1.65;0.68;;;;;;;;;;4995050;28;20049;-67
2022/02/08 14:30:56;;;;;;;3.53;1.13;;;;;;;;;;4912330;29;20626;-68
2022/02/08 14:33:54;;;;;;;1.95;0.98;;;;;;;;;;4912142;29;20064;-68
2022/02/08 15:09:37;;;;;;;2.17;0.77;;;;;;;;;;4969224;28;20436;-69
2022/02/08 15:12:13;;;;;;;4.85;1.10;;;;;;;;;;4915579;29;20063;-68
2022/02/08 15:14:50;;;;;;;3.47;0.70;;;;;;;;;;4930908;29;20076;-69
2022/02/08 15:17:21;;;;;;;3.25;0.90;;;;;;;;;;4892994;29;20064;-70
2022/02/08 15:19:54;;;;;;;2.28;0.65;;;;;;;;;;4893225;29;20064;-71
2022/02/08 15:22:26;;;;;;;3.90;0.70;;;;;;;;;;4892993;29;20079;-70
2022/02/08 15:24:58;;;;;;;1.45;0.57;;;;;;;;;;4894944;29;20058;-69
2022/02/08 15:27:30;;;;;;;1.88;0.50;;;;;;;;;;4849964;29;20068;-68
2022/02/08 15:30:01;;;;;;;4.78;0.70;;;;;;;;;;4896622;29;20063;-69
2022/02/08 15:32:31;;;;;;;1.75;0.70;;;;;;;;;;4896390;29;20065;-69
2022/02/08 15:35:05;;;;;;;1.17;0.52;;;;;;;;;;4865530;29;20067;-70
2022/02/08 15:37:36;;;;;;;1.60;0.70;;;;;;;;;;4849934;29;20421;-69
2022/02/08 15:40:10;;;;;;;2.25;0.90;;;;;;;;;;4896663;29;20184;-68
2022/02/08 15:42:41;;;;;;;1.10;0.60;;;;;;;;;;4870784;29;20052;-68
2022/02/08 15:45:32;;;;;;;1.42;0.50;;;;;;;;;;4915530;29;20052;-67
2022/02/08 15:48:06;;;;;;;1.40;0.65;;;;;;;;;;4947316;29;20474;-67
2022/02/08 16:09:17;;;;;;;1.90;0.70;;;;;;;;;;4979297;28;20061;-66
2022/02/08 16:14:45;;;;;;;1.17;0.73;;;;;;;;;;5013663;28;20056;-68
2022/02/08 16:17:30;;;;;;;1.92;0.50;;;;;;;;;;4923952;28;20058;-69
2022/02/08 16:20:20;;;;;;;1.50;0.52;;;;;;;;;;4972308;28;20055;-67
2022/02/08 16:23:18;;;;;;;0.77;0.52;;;;;;;;;;4972293;28;20402;-68
2022/02/08 16:46:04;;;;;;;1.95;0.70;;;;;;;;;;4971581;28;20055;-67
2022/02/08 16:51:35;;;;;;;1.58;0.50;;;;;;;;;;4932857;29;20043;-67
2022/02/08 16:53:42;;;;;;;1.20;0.57;;;;;;;;;;4916403;29;20052;-67
2022/02/08 16:56:24;;;;;;;2.60;0.70;;;;;;;;;;4879330;29;20060;-67
2022/02/08 16:58:56;;;;;;;1.35;0.50;;;;;;;;;;4864033;29;20064;-66
2022/02/08 17:01:29;;;;;;;1.88;0.52;;;;;;;;;;4894730;29;20061;-67
2022/02/08 17:03:59;;;;;;;1.67;0.68;;;;;;;;;;4863918;29;20053;-66
2022/02/08 17:06:30;;;;;;;1.15;0.68;;;;;;;;;;4894862;29;20053;-67
2022/02/08 17:09:06;;;;;;;4.53;0.45;;;;;;;;;;4894906;29;20497;-67
2022/02/08 17:11:48;;;;;;;3.08;0.63;;;;;;;;;;4894952;29;20056;-66
2022/02/08 17:14:45;;;;;;;1.75;0.40;;;;;;;;;;4863507;29;20064;-66
2022/02/08 17:48:18;;;;;;;2.42;0.70;;;;;;;;;;4896704;29;20071;-67
2022/02/08 17:50:48;;;;;;;1.67;0.40;;;;;;;;;;4912702;29;20056;-66
2022/02/08 17:53:22;;;;;;;2.92;0.52;;;;;;;;;;4893911;29;20052;-66
2022/02/08 17:55:52;;;;;;;1.17;0.30;;;;;;;;;;4847720;29;20067;-64
2022/02/08 17:58:23;;;;;;;2.08;0.30;;;;;;;;;;4894125;29;20056;-65
2022/02/08 18:00:55;;;;;;;2.85;0.40;;;;;;;;;;4878917;29;20417;-66
2022/02/08 18:03:26;;;;;;;2.15;0.40;;;;;;;;;;4893973;29;20048;-66
2022/02/08 18:05:57;;;;;;;0.90;0.50;;;;;;;;;;4893960;29;20433;-66
2022/02/08 18:08:27;;;;;;;1.25;0.40;;;;;;;;;;4863390;29;20056;-66
2022/02/08 18:10:58;;;;;;;0.73;0.40;;;;;;;;;;4908273;28;20061;-66
2022/02/08 18:13:31;;;;;;;1.50;0.52;;;;;;;;;;4910734;28;20054;-66
2022/02/08 18:16:02;;;;;;;1.42;0.93;;;;;;;;;;4989331;28;20074;-66
2022/02/08 18:18:40;;;;;;;2.42;0.40;;;;;;;;;;4989527;28;20057;-67
2022/02/08 19:16:02;;;;;;;0.65;0.40;;;;;;;;;;4859631;29;20421;-66
2022/02/08 19:18:57;;;;;;;0.40;0.38;;;;;;;;;;4828871;29;20462;-68
2022/02/08 19:23:58;;;;;;;1.08;0.40;;;;;;;;;;4876660;29;20086;-67
2022/02/08 19:26:28;;;;;;;7.07;1.95;;;;;;;;;;4915602;29;20108;-68
2022/02/08 19:28:59;;;;;;;1.55;0.40;;;;;;;;;;4915444;29;20151;-67
2022/02/08 19:31:31;;;;;;;2.90;0.60;;;;;;;;;;4915519;29;20056;-68
2022/02/08 19:34:02;;;;;;;0.63;0.30;;;;;;;;;;4947003;28;20514;-67
2022/02/08 19:36:33;;;;;;;2.35;0.40;;;;;;;;;;4992069;28;20050;-67
2022/02/08 19:39:05;;;;;;;1.98;0.45;;;;;;;;;;4995327;28;20061;-67
2022/02/08 19:41:36;;;;;;;2.72;0.63;;;;;;;;;;5014231;28;20057;-67
2022/02/08 19:44:09;;;;;;;0.88;0.40;;;;;;;;;;5014254;28;20474;-67
2022/02/08 19:46:42;;;;;;;1.17;0.35;;;;;;;;;;5014133;28;20065;-67
2022/02/08 19:49:13;;;;;;;4.55;0.40;;;;;;;;;;4979422;28;20058;-67
2022/02/08 19:51:44;;;;;;;3.38;0.55;;;;;;;;;;5013952;28;20690;-67
2022/02/08 19:54:19;;;;;;;2.08;0.50;;;;;;;;;;4995614;28;20054;-67
2022/02/08 19:57:10;;;;;;;2.28;0.43;;;;;;;;;;5013765;28;20048;-68
2022/02/08 19:59:41;;;;;;;2.50;0.73;;;;;;;;;;4979395;28;20053;-66
2022/02/08 20:02:15;;;;;;;;;;;;;;;;;;4980884;28;20057;-67
2022/02/08 20:04:48;;;;;;;1.38;0.30;;;;;;;;;;5013938;28;19933;-67
2022/02/08 20:07:18;;;;;;;0.60;0.40;;;;;;;;;;5014003;28;20517;-68
2022/02/08 20:09:49;;;;;;;3.35;0.60;;;;;;;;;;5013213;28;20046;-67
2022/02/08 20:12:29;;;;;;;2.08;0.50;;;;;;;;;;5013672;28;20037;-68
2022/02/08 20:15:07;;;;;;;2.25;0.50;;;;;;;;;;5013647;28;20038;-67
2022/02/08 20:17:37;;;;;;;1.98;0.50;;;;;;;;;;4979970;28;20053;-68
2022/02/08 20:20:14;;;;;;;2.53;0.80;;;;;;;;;;4981411;28;20034;-67
2022/02/08 20:22:56;;;;;;;1.45;0.55;;;;;;;;;;5013629;28;20045;-68
2022/02/08 20:25:27;;;;;;;1.98;0.63;;;;;;;;;;4955511;28;20486;-67
2022/02/08 20:28:08;;;;;;;1.85;0.70;;;;;;;;;;4917475;29;20062;-67
2022/02/08 20:30:39;;;;;;;4.93;1.30;;;;;;;;;;4933460;29;20302;-68
2022/02/08 20:33:18;;;;;;;2.78;1.10;;;;;;;;;;4903934;29;20063;-66
2022/02/08 20:35:49;;;;;;;1.77;0.80;;;;;;;;;;4901702;29;20439;-67
2022/02/08 20:38:20;;;;;;;2.10;0.75;;;;;;;;;;4871650;29;20059;-68
2022/02/08 20:40:53;;;;;;;2.78;1.15;;;;;;;;;;4901742;29;20057;-68
2022/02/08 20:43:28;;;;;;;2.25;0.75;;;;;;;;;;4933375;29;20059;-67
2022/02/08 20:46:00;;;;;;;2.45;0.70;;;;;;;;;;4901954;29;20051;-68
2022/02/08 20:48:30;;;;;;;;;;;;;;;;;;4918425;29;20063;-67
2022/02/08 20:51:03;;;;;;;4.38;0.80;;;;;;;;;;4917094;29;19923;-67
2022/02/08 20:56:25;;;;;;;1.60;0.80;;;;;;;;;;4932810;29;20063;-68
2022/02/08 21:01:35;;;;;;;3.00;1.00;;;;;;;;;;4932933;29;20083;-68
2022/02/08 21:04:25;;;;;;;3.65;0.80;;;;;;;;;;4968245;28;20063;-67
2022/02/08 21:06:58;;;;;;;3.75;0.80;;;;;;;;;;4944707;28;20059;-68
2022/02/08 21:09:29;;;;;;;1.50;0.70;;;;;;;;;;4955560;28;20089;-67
2022/02/08 21:12:16;;;;;;;1.75;0.77;;;;;;;;;;4971287;28;20525;-67
2022/02/08 21:14:52;;;;;;;2.33;0.75;;;;;;;;;;4971001;28;20519;-68
2022/02/08 21:17:23;;;;;;;7.05;0.70;;;;;;;;;;4954711;28;20046;-67
2022/02/08 21:19:54;;;;;;;1.73;0.57;;;;;;;;;;4955038;28;20058;-67
2022/02/08 21:22:25;;;;;;;4.75;0.60;;;;;;;;;;4953697;28;20059;-68
2022/02/08 21:24:57;;;;;;;2.53;0.63;;;;;;;;;;4938782;28;20061;-67
2022/02/08 21:27:29;;;;;;;1.63;0.95;;;;;;;;;;4931943;29;20436;-67
2022/02/08 21:33:01;;;;;;;9.00;1.20;;;;;;;;;;4913044;29;20056;-67
2022/02/08 21:44:35;;;;;;;1.15;0.50;;;;;;;;;;4884890;29;20056;-67
2022/02/08 21:49:44;;;;;;;4.97;0.93;;;;;;;;;;4885070;29;20063;-67
2022/02/08 21:55:03;;;;;;;2.88;0.77;;;;;;;;;;4931830;29;20044;-68
2022/02/08 21:57:54;;;;;;;2.45;0.70;;;;;;;;;;4931863;29;20054;-68
2022/02/08 22:00:27;;;;;;;2.13;0.52;;;;;;;;;;4931782;29;20066;-68
2022/02/08 22:02:59;;;;;;;4.15;0.90;;;;;;;;;;4931698;29;20043;-67
2022/02/08 22:05:32;;;;;;;4.47;0.95;;;;;;;;;;4931627;29;20052;-67
2022/02/08 22:08:13;;;;;;;2.65;0.90;;;;;;;;;;4931471;29;20067;-67
2022/02/08 22:16:48;;;;;;;1.27;0.40;;;;;;;;;;4931570;29;20602;-67
2022/02/08 22:22:02;;;;;;;1.15;0.50;;;;;;;;;;4912734;29;20471;-67
2022/02/08 22:27:40;;;;;;;7.53;0.85;;;;;;;;;;4893267;29;20059;-67
2022/02/08 22:33:09;;;;;;;3.33;0.70;;;;;;;;;;4818974;29;20069;-67
2022/02/08 22:35:43;;;;;;;6.20;0.80;;;;;;;;;;4819586;29;20047;-67
2022/02/08 22:38:38;;;;;;;4.75;0.73;;;;;;;;;;4819483;29;20576;-67
2022/02/08 22:41:17;;;;;;;3.00;0.85;;;;;;;;;;4801326;29;20050;-67
2022/02/08 22:43:54;;;;;;;8.55;0.88;;;;;;;;;;4801330;29;20065;-67
2022/02/08 22:46:26;;;;;;;3.13;0.80;;;;;;;;;;4801455;29;20463;-67
2022/02/08 22:48:57;;;;;;;;;;;;;;;;;;4801900;29;20078;-67
2022/02/08 22:51:28;;;;;;;6.20;0.90;;;;;;;;;;4814707;29;20295;-67
2022/02/08 22:53:59;;;;;;;17.83;1.20;;;;;;;;;;4804655;29;20062;-67
2022/02/08 22:56:30;;;;;;;10.20;1.60;;;;;;;;;;4790197;29;20475;-68
2022/02/08 22:59:02;;;;;;;7.40;1.05;;;;;;;;;;4819249;29;20062;-68
2022/02/08 23:01:33;;;;;;;7.95;1.42;;;;;;;;;;4818188;29;20069;-67
2022/02/08 23:04:04;;;;;;;9.02;1.40;;;;;;;;;;4819876;29;20065;-69
2022/02/08 23:06:35;;;;;;;9.07;1.20;;;;;;;;;;4837278;29;20061;-69
2022/02/08 23:09:12;;;;;;;6.78;1.23;;;;;;;;;;4822682;29;20058;-69
2022/02/08 23:37:17;;;;;;;7.82;1.58;;;;;;;;;;4860487;29;20061;-69
2022/02/08 23:39:47;;;;;;;5.75;2.05;;;;;;;;;;4856086;29;20418;-69
2022/02/08 23:42:22;;;;;;;8.75;2.00;;;;;;;;;;4855867;29;20072;-69
2022/02/08 23:44:54;;;;;;;5.50;1.95;;;;;;;;;;4839281;29;20074;-70
2022/02/08 23:47:36;;;;;;;7.57;2.10;;;;;;;;;;4873434;29;20432;-69
2022/02/08 23:50:07;;;;;;;6.85;2.30;;;;;;;;;;4908172;29;20048;-69
2022/02/08 23:52:50;;;;;;;6.05;2.00;;;;;;;;;;4915088;29;20052;-69
2022/02/08 23:55:34;;;;;;;7.43;2.50;;;;;;;;;;4915028;29;20052;-69
2022/02/08 23:58:10;;;;;;;8.98;2.20;;;;;;;;;;4915339;29;20051;-69
